createdAt,value
2023-01-08T00:01:36.191Z,16.23
2023-01-08T00:04:04.526Z,10.60
2023-01-08T00:06:35.443Z,16.70
2023-01-08T00:09:04.478Z,10.73
2023-01-08T00:11:34.183Z,14.87
2023-01-08T00:14:02.411Z,15.20
2023-01-08T00:16:31.148Z,18.63
2023-01-08T00:18:59.483Z,16.20
2023-01-08T00:21:27.771Z,11.57
2023-01-08T00:23:56.442Z,14.00
2023-01-08T00:26:25.105Z,13.83
2023-01-08T00:28:55.394Z,11.53
2023-01-08T00:31:23.968Z,10.47
2023-01-08T00:33:53.345Z,13.47
2023-01-08T00:36:21.728Z,13.17
2023-01-08T00:38:50.098Z,12.73
2023-01-08T00:41:18.783Z,13.33
2023-01-08T00:43:47.028Z,11.97
2023-01-08T00:46:16.748Z,12.47
2023-01-08T00:48:45.021Z,12.77
2023-01-08T00:51:13.806Z,11.53
2023-01-08T00:53:42.061Z,12.37
2023-01-08T00:56:11.366Z,12.47
2023-01-08T00:58:40.068Z,10.17
2023-01-08T01:01:12.412Z,5.90
2023-01-08T01:03:42.962Z,7.90
2023-01-08T01:06:14.388Z,3.70
2023-01-08T01:08:44.292Z,8.03
2023-01-08T01:11:23.159Z,6.50
2023-01-08T01:13:51.720Z,5.83
2023-01-08T01:16:20.035Z,5.93
2023-01-08T01:18:49.761Z,5.77
2023-01-08T01:21:24.044Z,7.43
2023-01-08T01:23:55.031Z,6.57
2023-01-08T01:26:24.853Z,7.57
2023-01-08T01:28:55.048Z,5.60
2023-01-08T01:31:24.175Z,9.33
2023-01-08T01:33:53.795Z,9.57
2023-01-08T01:36:24.020Z,9.90
2023-01-08T01:38:54.086Z,6.73
2023-01-08T01:41:26.980Z,9.10
2023-01-08T01:43:56.268Z,6.33
2023-01-08T01:46:36.193Z,7.93
2023-01-08T01:49:10.068Z,9.03
2023-01-08T01:51:42.530Z,5.80
2023-01-08T01:54:13.909Z,8.67
2023-01-08T01:56:52.379Z,5.77
2023-01-08T01:59:20.676Z,7.70
2023-01-08T02:01:49.527Z,5.67
2023-01-08T02:04:19.503Z,5.23
2023-01-08T02:06:54.525Z,5.43
2023-01-08T02:09:29.840Z,7.73
2023-01-08T02:12:18.599Z,6.90
2023-01-08T02:15:00.793Z,6.57
2023-01-08T02:17:35.983Z,3.70
2023-01-08T02:20:12.026Z,7.70
2023-01-08T02:22:49.883Z,8.40
2023-01-08T02:25:30.046Z,4.97
2023-01-08T02:28:02.919Z,5.03
2023-01-08T02:30:32.238Z,4.67
2023-01-08T02:33:00.532Z,7.10
2023-01-08T02:35:38.426Z,5.03
2023-01-08T02:38:07.161Z,2.63
2023-01-08T02:40:39.992Z,6.57
2023-01-08T02:43:13.828Z,4.93
2023-01-08T02:45:47.921Z,4.20
2023-01-08T02:48:27.439Z,7.67
2023-01-08T02:51:01.544Z,4.30
2023-01-08T02:53:32.844Z,5.97
2023-01-08T02:56:04.997Z,6.17
2023-01-08T02:58:36.879Z,6.90
2023-01-08T03:01:09.903Z,6.40
2023-01-08T03:03:40.537Z,5.37
2023-01-08T03:06:11.739Z,8.77
2023-01-08T03:08:43.000Z,8.53
2023-01-08T03:11:13.656Z,6.50
2023-01-08T03:13:48.544Z,5.90
2023-01-08T03:16:19.420Z,7.80
2023-01-08T03:18:53.166Z,6.30
2023-01-08T03:21:23.746Z,8.27
2023-01-08T03:23:52.507Z,7.67
2023-01-08T03:26:23.939Z,10.77
2023-01-08T03:28:56.651Z,9.30
2023-01-08T03:31:29.110Z,6.13
2023-01-08T03:33:58.616Z,7.53
2023-01-08T03:36:30.436Z,9.47
2023-01-08T03:39:04.989Z,6.03
2023-01-08T03:41:36.653Z,10.60
2023-01-08T03:44:06.638Z,11.60
2023-01-08T03:46:38.909Z,10.50
2023-01-08T03:49:08.912Z,13.20
2023-01-08T03:51:44.468Z,12.77
2023-01-08T03:54:15.453Z,10.67
2023-01-08T03:56:44.113Z,12.33
2023-01-08T03:59:16.450Z,6.67
2023-01-08T04:01:45.286Z,7.53
2023-01-08T04:04:13.961Z,9.23
2023-01-08T04:06:42.454Z,10.23
2023-01-08T04:09:10.728Z,7.47
2023-01-08T04:11:39.269Z,7.47
2023-01-08T04:14:07.623Z,10.80
2023-01-08T04:16:37.296Z,7.33
2023-01-08T04:19:05.591Z,9.83
2023-01-08T04:21:33.834Z,11.47
2023-01-08T04:24:02.101Z,11.43
2023-01-08T04:26:30.372Z,11.43
2023-01-08T04:28:58.688Z,10.40
2023-01-08T04:31:27.012Z,6.30
2023-01-08T04:33:56.817Z,9.30
2023-01-08T04:36:25.091Z,12.97
2023-01-08T04:38:53.381Z,7.00
2023-01-08T04:41:21.782Z,9.90
2023-01-08T04:43:50.080Z,9.43
2023-01-08T04:46:18.384Z,11.10
2023-01-08T04:48:46.624Z,11.37
2023-01-08T04:51:16.340Z,9.80
2023-01-08T04:53:45.526Z,10.13
2023-01-08T04:56:14.014Z,9.00
2023-01-08T04:58:42.410Z,7.20
2023-01-08T05:01:13.156Z,9.07
2023-01-08T05:03:41.781Z,7.03
2023-01-08T05:06:10.779Z,11.17
2023-01-08T05:08:40.451Z,11.80
2023-01-08T05:11:08.776Z,6.17
2023-01-08T05:13:37.066Z,7.83
2023-01-08T05:16:06.063Z,10.20
2023-01-08T05:18:34.399Z,11.00
2023-01-08T05:21:03.261Z,9.63
2023-01-08T05:23:31.569Z,12.67
2023-01-08T05:26:02.390Z,9.57
2023-01-08T05:28:30.864Z,11.27
2023-01-08T05:30:59.525Z,13.00
2023-01-08T05:33:28.087Z,14.90
2023-01-08T05:35:56.514Z,12.20
2023-01-08T05:38:24.808Z,10.77
2023-01-08T05:40:54.047Z,10.20
2023-01-08T05:43:23.910Z,9.70
2023-01-08T05:45:52.668Z,9.37
2023-01-08T05:48:20.924Z,9.87
2023-01-08T05:50:50.935Z,11.67
2023-01-08T05:53:19.373Z,10.23
2023-01-08T05:55:47.671Z,12.30
2023-01-08T05:58:19.033Z,11.10
2023-01-08T06:00:48.770Z,12.60
2023-01-08T06:03:17.052Z,7.93
2023-01-08T06:05:45.297Z,12.67
2023-01-08T06:08:13.591Z,13.43
2023-01-08T06:10:41.863Z,16.37
2023-01-08T06:13:11.199Z,10.20
2023-01-08T06:15:40.523Z,13.13
2023-01-08T06:18:10.255Z,10.97
2023-01-08T06:20:38.635Z,7.50
2023-01-08T06:23:08.731Z,9.10
2023-01-08T06:25:37.179Z,6.77
2023-01-08T06:28:07.136Z,9.97
2023-01-08T06:30:35.749Z,13.30
2023-01-08T06:33:04.166Z,9.17
2023-01-08T06:35:33.871Z,9.50
2023-01-08T06:38:02.206Z,7.43
2023-01-08T06:40:30.473Z,10.90
2023-01-08T06:43:03.088Z,14.97
2023-01-08T06:45:31.826Z,12.40
2023-01-08T06:48:01.949Z,16.43
2023-01-08T06:50:30.720Z,9.63
2023-01-08T06:53:00.367Z,16.47
2023-01-08T06:55:28.866Z,14.13
2023-01-08T06:57:58.443Z,15.27
2023-01-08T07:00:27.828Z,12.77
2023-01-08T07:02:56.540Z,16.87
2023-01-08T07:05:25.399Z,16.10
2023-01-08T07:07:53.833Z,17.43
2023-01-08T07:10:23.749Z,11.00
2023-01-08T07:12:52.017Z,15.17
2023-01-08T07:15:20.295Z,16.40
2023-01-08T07:17:48.631Z,16.53
2023-01-08T07:20:17.100Z,16.27
2023-01-08T07:22:45.450Z,15.57
2023-01-08T07:25:13.682Z,13.97
2023-01-08T07:27:43.392Z,16.50
2023-01-08T07:30:28.381Z,19.07
2023-01-08T07:33:01.133Z,17.23
2023-01-08T07:35:29.724Z,20.33
2023-01-08T07:43:12.514Z,14.43
2023-01-08T07:45:40.972Z,16.53
2023-01-08T07:48:10.567Z,21.63
2023-01-08T07:50:41.418Z,15.60
2023-01-08T07:53:10.413Z,14.37
2023-01-08T07:55:38.846Z,15.90
2023-01-08T07:58:12.595Z,14.90
2023-01-08T08:00:41.399Z,13.83
2023-01-08T08:03:11.923Z,11.33
2023-01-08T08:05:40.683Z,13.80
2023-01-08T08:08:10.804Z,15.50
2023-01-08T08:10:39.176Z,16.63
2023-01-08T08:13:07.703Z,16.33
2023-01-08T08:15:38.723Z,15.27
2023-01-08T08:18:07.971Z,10.20
2023-01-08T08:20:36.452Z,12.27
2023-01-08T08:23:06.067Z,18.80
2023-01-08T08:25:34.436Z,14.60
2023-01-08T08:28:04.213Z,17.10
2023-01-08T08:30:34.918Z,11.70
2023-01-08T08:33:06.675Z,18.47
2023-01-08T08:35:35.686Z,20.47
2023-01-08T08:38:04.028Z,16.37
2023-01-08T08:40:32.763Z,12.60
2023-01-08T08:43:03.313Z,17.60
2023-01-08T08:45:31.814Z,14.30
2023-01-08T08:48:00.100Z,16.73
2023-01-08T08:50:30.077Z,14.20
2023-01-08T08:53:00.564Z,16.63
2023-01-08T08:55:28.933Z,15.57
2023-01-08T08:58:04.687Z,18.27
2023-01-08T09:00:33.258Z,15.73
2023-01-08T09:03:01.669Z,13.23
2023-01-08T09:05:31.549Z,15.87
2023-01-08T09:07:59.887Z,18.00
2023-01-08T09:10:28.303Z,14.83
2023-01-08T09:12:56.886Z,15.13
2023-01-08T09:15:25.155Z,15.43
2023-01-08T09:17:56.735Z,18.30
2023-01-08T09:20:26.006Z,17.57
2023-01-08T09:22:55.923Z,20.13
2023-01-08T09:25:24.155Z,15.07
2023-01-08T09:28:00.435Z,17.13
2023-01-08T09:30:29.074Z,15.77
2023-01-08T09:33:02.648Z,18.67
2023-01-08T09:35:32.266Z,14.70
2023-01-08T09:38:01.968Z,16.50
2023-01-08T09:40:35.037Z,17.87
2023-01-08T09:43:06.110Z,18.20
2023-01-08T09:45:36.808Z,15.97
2023-01-08T09:48:08.698Z,18.17
2023-01-08T09:50:37.695Z,14.60
2023-01-08T09:53:10.306Z,12.87
2023-01-08T09:55:39.499Z,12.23
2023-01-08T09:58:15.453Z,13.67
2023-01-08T10:00:43.825Z,16.20
2023-01-08T10:03:13.679Z,12.77
2023-01-08T10:05:42.081Z,13.20
2023-01-08T10:08:14.783Z,18.83
2023-01-08T10:10:44.471Z,16.13
2023-01-08T10:13:13.710Z,17.93
2023-01-08T10:15:42.412Z,21.10
2023-01-08T10:18:14.586Z,17.43
2023-01-08T10:20:43.084Z,20.57
2023-01-08T10:23:18.359Z,13.90
2023-01-08T10:25:55.220Z,17.73
2023-01-08T10:28:25.248Z,15.53
2023-01-08T10:30:55.042Z,17.90
2023-01-08T10:33:26.609Z,13.70
2023-01-08T10:35:59.639Z,17.03
2023-01-08T10:38:33.975Z,16.33
2023-01-08T10:41:04.555Z,15.43
2023-01-08T10:43:35.749Z,16.23
2023-01-08T10:46:06.346Z,16.27
2023-01-08T10:48:38.120Z,20.07
2023-01-08T10:51:16.889Z,14.40
2023-01-08T10:53:47.128Z,17.77
2023-01-08T10:56:22.103Z,15.97
2023-01-08T10:58:51.021Z,18.93
2023-01-08T11:01:23.990Z,12.27
2023-01-08T11:03:53.990Z,15.57
2023-01-08T11:06:24.806Z,20.87
2023-01-08T11:08:56.587Z,14.67
2023-01-08T11:11:25.716Z,13.97
2023-01-08T11:13:58.720Z,15.17
2023-01-08T11:16:35.210Z,13.87
2023-01-08T11:19:03.760Z,14.37
2023-01-08T11:21:33.319Z,12.23
2023-01-08T11:24:11.547Z,16.07
2023-01-08T11:26:42.366Z,13.67
2023-01-08T11:29:16.333Z,12.60
2023-01-08T11:31:51.083Z,12.33
2023-01-08T11:34:25.955Z,12.27
2023-01-08T11:36:59.019Z,11.50
2023-01-08T11:39:28.765Z,9.73
2023-01-08T11:42:18.186Z,14.47
2023-01-08T11:45:01.612Z,9.10
2023-01-08T11:47:43.847Z,10.27
2023-01-08T11:50:20.268Z,14.67
2023-01-08T11:53:07.440Z,11.20
2023-01-08T11:55:47.810Z,12.53
2023-01-08T11:58:36.040Z,11.83
2023-01-08T12:01:22.873Z,12.37
2023-01-08T12:03:58.799Z,11.40
2023-01-08T12:06:39.162Z,15.27
2023-01-08T12:09:18.809Z,12.83
2023-01-08T12:11:56.385Z,11.37
2023-01-08T12:14:38.240Z,12.97
2023-01-08T12:17:21.208Z,11.90
2023-01-08T12:20:05.008Z,14.47
2023-01-08T12:22:46.589Z,13.67
2023-01-08T12:25:41.308Z,13.97
2023-01-08T12:28:22.188Z,13.97
2023-01-08T12:31:09.572Z,11.00
2023-01-08T12:33:42.695Z,14.93
2023-01-08T12:36:17.176Z,14.27
2023-01-08T12:38:50.778Z,19.90
2023-01-08T12:41:20.906Z,14.07
2023-01-08T12:43:56.713Z,15.73
2023-01-08T12:46:28.138Z,16.07
2023-01-08T12:48:58.238Z,12.10
2023-01-08T12:51:32.945Z,12.67
2023-01-08T12:54:09.249Z,14.37
2023-01-08T12:56:44.839Z,17.30
2023-01-08T12:59:24.383Z,22.83
2023-01-08T13:02:00.117Z,15.07
2023-01-08T13:04:28.621Z,15.27
2023-01-08T13:07:04.155Z,12.97
2023-01-08T13:09:33.902Z,11.80
2023-01-08T13:12:02.333Z,11.63
2023-01-08T13:14:42.555Z,11.53
2023-01-08T13:17:19.958Z,10.63
2023-01-08T13:19:54.761Z,13.67
2023-01-08T13:22:31.362Z,13.97
2023-01-08T14:51:15.046Z,3.97
2023-01-08T14:53:46.264Z,4.13
2023-01-08T14:56:17.810Z,2.43
2023-01-08T14:58:46.973Z,3.80
2023-01-08T15:01:18.599Z,3.27
2023-01-08T15:03:48.566Z,2.23
2023-01-08T15:06:27.831Z,3.87
2023-01-08T15:08:56.132Z,4.63
2023-01-08T15:11:25.805Z,3.43
2023-01-08T15:13:55.644Z,3.00
2023-01-08T15:16:30.578Z,3.70
2023-01-08T15:19:05.187Z,2.80
2023-01-08T15:21:36.428Z,1.93
2023-01-08T15:24:06.831Z,3.17
2023-01-08T15:26:35.320Z,3.20
2023-01-08T15:29:07.262Z,4.10
2023-01-08T15:31:49.583Z,5.10
2023-01-08T15:34:20.411Z,1.97
2023-01-08T15:36:50.209Z,2.57
2023-01-08T15:39:18.498Z,3.63
2023-01-08T15:42:04.079Z,3.97
2023-01-08T15:44:32.336Z,3.87
2023-01-08T15:47:00.607Z,7.60
2023-01-08T15:49:28.960Z,6.77
2023-01-08T15:51:59.144Z,4.93
2023-01-08T15:54:27.577Z,4.93
2023-01-08T15:56:55.826Z,5.87
2023-01-08T15:59:24.127Z,3.70
2023-01-08T16:01:52.450Z,12.23
2023-01-08T16:04:20.855Z,13.00
2023-01-08T16:06:52.223Z,13.03
2023-01-08T16:09:22.304Z,8.67
2023-01-08T16:11:52.718Z,6.40
2023-01-08T16:14:21.244Z,7.73
2023-01-08T16:16:49.495Z,10.07
2023-01-08T16:19:17.838Z,10.63
2023-01-08T16:21:48.136Z,9.40
2023-01-08T16:24:16.892Z,11.63
2023-01-08T16:26:46.505Z,11.13
2023-01-08T16:29:14.837Z,9.10
2023-01-08T16:31:46.558Z,10.03
2023-01-08T16:34:15.724Z,8.70
2023-01-08T16:36:44.048Z,8.50
2023-01-08T16:39:12.454Z,6.47
2023-01-08T16:41:41.565Z,5.10
2023-01-08T16:44:19.687Z,6.00
2023-01-08T16:46:48.278Z,4.33
2023-01-08T16:49:16.966Z,4.93
2023-01-08T16:51:45.501Z,6.20
2023-01-08T16:54:14.050Z,5.50
2023-01-08T16:56:42.720Z,8.03
2023-01-08T16:59:22.832Z,4.97
2023-01-08T17:01:53.236Z,3.70
2023-01-08T17:04:21.700Z,3.90
2023-01-08T17:06:50.058Z,5.43
2023-01-08T17:09:18.418Z,5.00
2023-01-08T17:11:47.752Z,4.07
2023-01-08T17:14:16.303Z,3.33
2023-01-08T17:16:45.410Z,4.10
2023-01-08T17:19:15.156Z,5.27
2023-01-08T17:21:44.597Z,3.93
2023-01-08T17:24:12.853Z,4.30
2023-01-08T17:26:41.174Z,5.13
2023-01-08T17:29:09.521Z,4.33
2023-01-08T17:31:40.610Z,6.77
2023-01-08T17:34:12.832Z,5.87
2023-01-08T17:36:42.938Z,4.07
2023-01-08T17:39:12.433Z,4.00
2023-01-08T17:41:58.033Z,5.00
2023-01-08T17:44:27.259Z,8.00
2023-01-08T17:46:55.535Z,8.47
2023-01-08T17:49:23.865Z,7.20
2023-01-08T17:51:53.998Z,4.87
2023-01-08T17:54:24.134Z,4.90
2023-01-08T17:56:53.650Z,6.83
2023-01-08T17:59:22.539Z,7.07
2023-01-08T18:01:53.505Z,14.23
2023-01-08T18:04:22.094Z,9.77
2023-01-08T18:06:50.497Z,9.20
2023-01-08T18:09:20.267Z,17.27
2023-01-08T18:11:48.703Z,15.53
2023-01-08T18:14:17.047Z,10.03
2023-01-08T18:16:45.952Z,13.13
2023-01-08T18:19:15.776Z,11.07
2023-01-08T18:21:44.182Z,9.33
2023-01-08T18:24:13.110Z,8.10
2023-01-08T18:26:43.338Z,10.63
2023-01-08T18:29:11.717Z,14.57
2023-01-08T18:31:40.060Z,10.03
2023-01-08T18:34:08.971Z,9.27
2023-01-08T18:36:37.336Z,10.67
2023-01-08T18:39:06.148Z,12.53
2023-01-08T18:41:51.676Z,13.03
2023-01-08T18:44:21.521Z,10.47
2023-01-08T18:46:49.978Z,12.07
2023-01-08T18:49:20.115Z,8.47
2023-01-08T18:51:48.562Z,10.27
2023-01-08T18:54:16.934Z,12.13
2023-01-08T18:56:46.498Z,13.03
2023-01-08T18:59:15.007Z,10.43
2023-01-08T19:01:44.746Z,10.30
2023-01-08T19:04:16.392Z,11.53
2023-01-08T19:06:44.652Z,10.73
2023-01-08T19:09:12.916Z,8.97
2023-01-08T19:11:42.245Z,10.53
2023-01-08T19:14:12.501Z,11.03
2023-01-08T19:16:43.274Z,8.77
2023-01-08T19:19:13.025Z,10.37
2023-01-08T19:21:41.379Z,10.00
2023-01-08T19:24:09.978Z,9.60
2023-01-08T19:26:39.204Z,11.23
2023-01-08T19:29:07.554Z,19.17
2023-01-08T19:31:36.029Z,14.23
2023-01-08T19:34:05.095Z,13.30
2023-01-08T19:36:34.868Z,13.20
2023-01-08T19:39:04.922Z,8.23
2023-01-08T19:41:55.817Z,10.13
2023-01-08T19:44:24.188Z,8.23
2023-01-08T19:46:52.535Z,10.07
2023-01-08T19:49:20.816Z,10.63
2023-01-08T19:51:51.047Z,11.33
2023-01-08T19:54:22.097Z,11.87
2023-01-08T19:56:50.472Z,11.07
2023-01-08T19:59:18.895Z,9.43
2023-01-08T20:01:47.252Z,11.97
2023-01-08T20:04:15.842Z,13.03
2023-01-08T20:06:44.154Z,12.67
2023-01-08T20:09:13.788Z,12.20
2023-01-08T20:11:43.818Z,9.30
2023-01-08T20:14:12.161Z,10.33
2023-01-08T20:16:40.679Z,12.80
2023-01-08T20:19:09.082Z,13.27
2023-01-08T20:21:38.681Z,13.10
2023-01-08T20:24:10.794Z,10.93
2023-01-08T20:26:40.800Z,10.27
2023-01-08T20:29:10.186Z,11.87
2023-01-08T20:31:40.042Z,11.63
2023-01-08T20:34:12.409Z,11.07
2023-01-08T20:36:40.809Z,14.97
2023-01-08T20:39:12.300Z,14.43
2023-01-08T20:41:49.805Z,12.43
2023-01-08T20:44:24.374Z,13.57
2023-01-08T20:46:52.763Z,16.63
2023-01-08T20:49:21.284Z,11.57
2023-01-08T20:51:58.497Z,14.30
2023-01-08T20:54:27.701Z,15.27
2023-01-08T20:56:57.856Z,21.07
2023-01-08T20:59:26.688Z,14.47
2023-01-08T21:01:55.344Z,15.60
2023-01-08T21:04:24.492Z,13.97
2023-01-08T21:06:53.029Z,13.83
2023-01-08T21:09:21.570Z,11.87
2023-01-08T21:11:50.742Z,13.37
2023-01-08T21:14:20.508Z,12.23
2023-01-08T21:16:48.845Z,15.60
2023-01-08T21:19:17.178Z,14.07
2023-01-08T21:21:45.758Z,16.80
2023-01-08T21:24:15.911Z,15.30
2023-01-08T21:26:46.183Z,13.40
2023-01-08T21:29:14.751Z,16.63
2023-01-08T21:31:44.899Z,15.07
2023-01-08T21:34:13.924Z,18.27
2023-01-08T21:36:42.277Z,15.40
2023-01-08T21:39:11.755Z,12.03
2023-01-08T21:41:57.268Z,19.63
2023-01-08T21:44:44.400Z,18.80
2023-01-08T21:47:17.179Z,15.77
2023-01-08T21:49:46.392Z,14.40
2023-01-08T21:52:32.815Z,16.70
2023-01-08T21:55:01.321Z,18.47
2023-01-08T21:57:29.696Z,16.97
2023-01-08T21:59:58.185Z,17.60
2023-01-08T22:02:27.963Z,14.27
2023-01-08T22:04:57.250Z,16.03
2023-01-08T22:07:25.656Z,14.23
2023-01-08T22:09:54.251Z,15.07
2023-01-08T22:12:24.186Z,18.43
2023-01-08T22:14:54.193Z,15.30
2023-01-08T22:17:23.192Z,18.33
2023-01-08T22:19:53.519Z,19.03
2023-01-08T22:22:22.009Z,17.30
2023-01-08T22:24:51.647Z,16.83
2023-01-08T22:27:20.379Z,22.30
2023-01-08T22:29:48.715Z,22.60
2023-01-08T22:32:17.317Z,23.93
2023-01-08T22:34:45.613Z,20.53
2023-01-08T22:37:16.886Z,21.80
2023-01-08T22:39:46.341Z,22.00
2023-01-08T22:42:14.688Z,24.20
2023-01-08T22:44:43.007Z,25.20
2023-01-08T22:47:11.303Z,22.70
2023-01-08T22:49:39.704Z,25.07
2023-01-08T22:52:09.036Z,22.80
2023-01-08T22:54:38.866Z,19.47
2023-01-08T22:57:07.967Z,19.97
2023-01-08T22:59:36.543Z,17.83
2023-01-08T23:02:04.960Z,20.10
2023-01-08T23:04:33.413Z,15.90
2023-01-08T23:07:01.732Z,18.83
2023-01-08T23:09:30.135Z,13.30
2023-01-08T23:11:59.863Z,10.73
2023-01-08T23:14:28.210Z,12.13
2023-01-08T23:16:56.502Z,13.47
2023-01-08T23:19:25.037Z,14.47
2023-01-08T23:21:53.375Z,12.57
2023-01-08T23:24:21.810Z,13.57
2023-01-08T23:26:50.208Z,16.67
2023-01-08T23:29:19.912Z,20.40
2023-01-08T23:31:48.348Z,18.90
2023-01-08T23:34:17.806Z,17.33
2023-01-08T23:36:46.121Z,16.87
2023-01-08T23:39:14.466Z,20.67
2023-01-08T23:41:42.825Z,18.07
2023-01-08T23:44:13.884Z,16.07
2023-01-08T23:46:43.688Z,15.57
2023-01-08T23:49:12.169Z,12.90
2023-01-08T23:51:42.412Z,16.10
2023-01-08T23:54:11.064Z,13.43
2023-01-08T23:56:39.843Z,15.33
2023-01-08T23:59:08.722Z,13.37
